Time;durP1;ratioP1;P1;durP2;ratioP2;P2;SDS_P1;SDS_P2;PMS_P1;PMS_P2;Temp;Humidity;BMP_temperature;BMP_pressure;BME280_temperature;BME280_humidity;BME280_pressure;Samples;Min_cycle;Max_cycle;Signal;HPM_P1;HPM_P2
2021/06/01 00:01:30;;;;;;;5.80;3.85;;;;;;;11.14;96.99;96522.63;4965630;28;20118;-60
2021/06/01 00:03:56;;;;;;;6.20;3.65;;;;;;;10.42;97.13;96408.94;4963921;28;20130;-59
2021/06/01 00:06:21;;;;;;;8.52;4.07;;;;;;;11.11;97.20;96509.53;4963693;28;20122;-63
2021/06/01 00:08:47;;;;;;;5.57;4.07;;;;;;;11.10;97.48;96513.47;4965584;28;20039;-61
2021/06/01 00:11:13;;;;;;;4.75;3.63;;;;;;;10.67;97.52;96474.41;4964106;28;20057;-60
2021/06/01 00:13:39;;;;;;;7.72;4.75;;;;;;;10.65;98.36;96462.91;4964325;28;20042;-60
2021/06/01 00:16:05;;;;;;;4.10;3.70;;;;;;;11.01;97.90;96515.81;4963494;28;20057;-60
2021/06/01 00:18:31;;;;;;;7.57;4.50;;;;;;;10.91;97.72;96511.00;4965518;28;20043;-60
2021/06/01 00:20:57;;;;;;;4.55;3.95;;;;;;;10.49;98.65;96462.41;4965287;28;20042;-60
2021/06/01 00:23:23;;;;;;;8.82;4.10;;;;;;;9.65;98.71;96319.75;4965515;28;20034;-60
2021/06/01 00:25:48;;;;;;;11.02;4.00;;;;;;;10.21;97.89;96401.28;4965089;28;20034;-59
2021/06/01 00:28:14;;;;;;;5.22;4.10;;;;;;;10.65;98.37;96493.38;4963928;28;20038;-60
2021/06/01 00:30:41;;;;;;;5.57;3.75;;;;;;;10.72;97.04;96508.50;4965030;28;20037;-60
2021/06/01 00:33:07;;;;;;;12.50;4.13;;;;;;;10.50;96.31;96479.81;4965363;28;20472;-61
2021/06/01 00:35:34;;;;;;;7.18;4.10;;;;;;;10.58;96.47;96518.25;4963760;28;20043;-60
2021/06/01 00:38:03;;;;;;;7.03;4.45;;;;;;;10.47;97.84;96509.06;4965086;28;20059;-63
2021/06/01 00:40:29;;;;;;;9.40;5.35;;;;;;;10.39;98.55;96507.41;4964848;28;20445;-61
2021/06/01 00:42:55;;;;;;;8.00;4.60;;;;;;;10.56;100.00;96505.97;4965010;28;20611;-59
2021/06/01 00:45:23;;;;;;;7.63;5.13;;;;;;;10.58;98.63;96498.88;4965334;28;20564;-60
2021/06/01 00:47:49;;;;;;;7.57;4.78;;;;;;;10.09;99.14;96443.09;4965246;28;20030;-59
2021/06/01 00:50:15;;;;;;;8.10;4.80;;;;;;;10.62;98.65;96505.22;4965174;28;20035;-60
2021/06/01 00:52:41;;;;;;;7.68;4.63;;;;;;;10.15;98.99;96436.03;4964736;28;20057;-60
2021/06/01 00:55:07;;;;;;;10.80;5.10;;;;;;;9.99;99.25;96438.22;4964465;28;20039;-60
2021/06/01 00:57:34;;;;;;;6.20;4.00;;;;;;;10.34;97.51;96488.38;4967651;28;20093;-60
2021/06/01 00:59:59;;;;;;;7.55;4.13;;;;;;;10.46;95.72;96513.00;4967647;28;20473;-59
2021/06/01 01:02:26;;;;;;;11.50;4.55;;;;;;;10.10;95.69;96482.63;4966848;28;20030;-60
2021/06/01 01:04:52;;;;;;;7.45;5.00;;;;;;;10.29;96.94;96530.25;4967702;28;20524;-61
2021/06/01 01:10:06;;;;;;;7.03;4.20;;;;;;;10.10;97.51;96494.47;4968513;28;20057;-59
2021/06/01 01:12:40;;;;;;;7.93;3.78;;;;;;;8.85;97.91;96323.28;4967048;28;20035;-60
2021/06/01 01:15:07;;;;;;;8.00;4.05;;;;;;;9.84;96.73;96474.41;4968663;28;20039;-60
2021/06/01 01:17:45;;;;;;;8.60;5.18;;;;;;;10.17;97.91;96511.16;4968555;28;20126;-60
2021/06/01 01:20:37;;;;;;;6.28;4.30;;;;;;;10.04;98.55;96501.50;4968464;28;20066;-60
2021/06/01 01:23:14;;;;;;;6.90;4.20;;;;;;;9.83;99.54;96504.03;4967218;28;20141;-60
2021/06/01 01:25:46;;;;;;;12.35;6.03;;;;;;;9.86;98.90;96497.78;4967898;28;20492;-60
2021/06/01 01:28:36;;;;;;;8.05;3.95;;;;;;;9.86;97.59;96511.59;4966610;28;20050;-63
2021/06/01 01:31:08;;;;;;;6.72;3.60;;;;;;;9.90;97.26;96506.91;4968420;28;20034;-61
2021/06/01 01:33:37;;;;;;;6.35;3.58;;;;;;;9.91;96.62;96508.47;4975697;28;20614;-60
2021/06/01 01:36:05;;;;;;;8.52;3.55;;;;;;;9.91;97.04;96514.00;4971913;28;20039;-60
2021/06/01 01:38:34;;;;;;;4.43;3.80;;;;;;;9.88;97.96;96503.69;4968445;28;20038;-63
2021/06/01 01:41:07;;;;;;;8.88;4.20;;;;;;;9.05;97.63;96371.66;4968089;28;20090;-62
2021/06/01 01:43:34;;;;;;;7.30;3.42;;;;;;;9.65;98.08;96499.50;4968060;28;20038;-61
2021/06/01 01:48:59;;;;;;;3.05;2.75;;;;;;;9.58;97.20;96483.59;4968030;28;20038;-60
2021/06/01 01:51:36;;;;;;;4.07;3.10;;;;;;;9.55;96.24;96495.41;4982283;28;20042;-60
2021/06/01 01:54:23;;;;;;;7.53;4.18;;;;;;;9.38;95.80;96490.47;4966512;28;20035;-60
2021/06/01 01:56:57;;;;;;;5.47;3.70;;;;;;;9.21;97.39;96497.34;4967603;28;20039;-61
2021/06/01 01:59:24;;;;;;;;;;;;;;;9.14;96.57;96496.47;4968679;28;20141;-60
2021/06/01 02:01:51;;;;;;;5.60;3.78;;;;;;;9.01;98.18;96492.34;4965849;28;19921;-62
2021/06/01 02:04:24;;;;;;;7.00;4.50;;;;;;;8.97;100.00;96494.28;4982122;28;20038;-60
2021/06/01 02:06:51;;;;;;;7.97;4.93;;;;;;;8.50;100.00;96400.13;4967352;28;20104;-60
2021/06/01 02:09:17;;;;;;;8.07;5.78;;;;;;;8.70;100.00;96434.69;4965855;28;20403;-60
2021/06/01 02:11:43;;;;;;;11.27;7.57;;;;;;;8.83;100.00;96430.56;4967166;28;20042;-62
2021/06/01 02:14:09;;;;;;;12.30;6.97;;;;;;;9.18;100.00;96486.28;4967566;28;20069;-61
2021/06/01 02:16:36;;;;;;;9.70;6.35;;;;;;;9.23;100.00;96494.25;4964638;28;20129;-59
2021/06/01 02:19:05;;;;;;;5.28;4.50;;;;;;;8.82;99.83;96443.56;4981478;28;20035;-63
2021/06/01 02:24:13;;;;;;;16.25;4.05;;;;;;;8.88;97.70;96444.81;4967260;28;20046;-60
2021/06/01 02:26:45;;;;;;;6.75;3.58;;;;;;;9.11;98.54;96483.41;4964978;28;20134;-62
2021/06/01 02:29:43;;;;;;;5.13;3.42;;;;;;;9.14;97.37;96485.41;4967522;28;20053;-59
2021/06/01 02:32:09;;;;;;;8.18;3.13;;;;;;;9.06;96.44;96489.25;4964528;28;20134;-60
2021/06/01 02:34:39;;;;;;;9.02;3.60;;;;;;;8.92;97.60;96484.34;4964868;28;20453;-63
2021/06/01 02:37:07;;;;;;;6.90;4.28;;;;;;;8.59;96.80;96431.81;4966573;28;20074;-61
2021/06/01 02:39:33;;;;;;;6.88;4.28;;;;;;;9.05;97.29;96493.19;4964965;28;20090;-60
2021/06/01 02:41:59;;;;;;;6.97;4.93;;;;;;;8.65;98.15;96435.81;4966186;28;20026;-61
2021/06/01 02:44:25;;;;;;;5.35;4.47;;;;;;;8.86;98.07;96496.09;4964980;28;20414;-64
2021/06/01 02:46:51;;;;;;;10.88;4.25;;;;;;;8.87;97.88;96497.66;4966073;28;20417;-61
2021/06/01 02:49:38;;;;;;;4.80;4.30;;;;;;;8.92;97.91;96500.09;4965126;28;20034;-62
2021/06/01 02:52:04;;;;;;;4.82;3.75;;;;;;;8.81;98.98;96499.97;4965688;28;20512;-61
2021/06/01 02:54:31;;;;;;;9.68;3.45;;;;;;;8.73;98.46;96476.19;4966985;28;20489;-61
2021/06/01 02:56:56;;;;;;;11.55;3.60;;;;;;;8.54;97.75;96456.94;4966278;28;20085;-61
2021/06/01 02:59:23;;;;;;;7.40;3.40;;;;;;;8.81;94.46;96510.19;4981491;28;20049;-63
2021/06/01 03:01:49;;;;;;;5.47;3.03;;;;;;;8.75;96.20;96500.66;4966369;28;20077;-61
2021/06/01 03:04:15;;;;;;;6.10;2.95;;;;;;;8.74;97.08;96504.59;4967091;28;20574;-63
2021/06/01 03:06:43;;;;;;;9.27;3.42;;;;;;;8.81;97.67;96510.19;4965936;28;20493;-63
2021/06/01 03:09:09;;;;;;;4.82;2.95;;;;;;;8.90;96.09;96507.97;4981134;28;20429;-60
2021/06/01 03:11:35;;;;;;;6.07;3.45;;;;;;;6.74;96.29;96165.78;4966219;28;20035;-63
2021/06/01 03:14:00;;;;;;;4.38;3.47;;;;;;;7.94;97.46;96339.34;4966533;28;20051;-61
2021/06/01 03:16:26;;;;;;;6.82;3.45;;;;;;;8.65;96.14;96446.06;4965931;28;20062;-61
2021/06/01 03:18:51;;;;;;;4.47;2.85;;;;;;;8.96;95.07;96495.44;4965802;28;20046;-61
2021/06/01 03:21:17;;;;;;;4.07;3.20;;;;;;;6.36;94.49;96088.88;4964805;28;20034;-61
2021/06/01 03:23:45;;;;;;;11.32;4.80;;;;;;;8.46;96.75;96413.06;4964797;28;20042;-62
2021/06/01 03:26:10;;;;;;;11.63;4.80;;;;;;;8.66;94.54;96431.88;4963229;28;20498;-61
2021/06/01 03:28:36;;;;;;;10.93;6.18;;;;;;;9.05;93.40;96495.97;4964857;28;20054;-61
2021/06/01 03:31:02;;;;;;;12.95;10.38;;;;;;;8.38;96.12;96376.28;4965014;28;20030;-60
2021/06/01 03:33:29;;;;;;;12.70;8.27;;;;;;;9.21;96.96;96496.59;4964828;28;20065;-62
2021/06/01 03:35:55;;;;;;;13.23;6.13;;;;;;;8.25;92.14;96324.47;4963921;28;20082;-61
2021/06/01 03:38:21;;;;;;;8.38;4.60;;;;;;;8.29;91.50;96317.03;4966082;28;20113;-61
2021/06/01 03:40:46;;;;;;;6.78;3.70;;;;;;;8.81;91.70;96427.38;4966014;28;20027;-61
2021/06/01 03:43:12;;;;;;;5.55;3.15;;;;;;;8.90;93.17;96452.72;4965863;28;20030;-63
2021/06/01 03:45:37;;;;;;;7.20;4.22;;;;;;;9.40;93.66;96503.91;4965272;28;20030;-61
2021/06/01 03:48:03;;;;;;;8.02;5.50;;;;;;;9.37;92.68;96494.44;4980323;28;20035;-60
2021/06/01 03:50:29;;;;;;;15.40;7.57;;;;;;;9.00;93.15;96418.94;4963826;28;20077;-61
2021/06/01 03:52:54;;;;;;;8.50;6.60;;;;;;;9.53;92.87;96486.69;4964217;28;20035;-60
2021/06/01 03:55:20;;;;;;;11.27;5.65;;;;;;;9.59;92.18;96474.16;4965213;28;20181;-61
2021/06/01 03:57:48;;;;;;;7.45;4.60;;;;;;;9.69;92.83;96490.06;4964473;28;20027;-63
2021/06/01 04:00:17;;;;;;;7.97;3.22;;;;;;;9.83;91.15;96490.22;4963928;28;20705;-59
2021/06/01 04:02:42;;;;;;;5.50;2.65;;;;;;;9.89;89.61;96510.03;4965593;28;20065;-61
2021/06/01 04:05:09;;;;;;;2.83;2.55;;;;;;;9.99;90.07;96482.47;4963865;28;20070;-60
2021/06/01 04:07:35;;;;;;;4.90;2.67;;;;;;;9.40;90.09;96383.13;4963645;28;20403;-60
2021/06/01 04:10:01;;;;;;;3.80;2.65;;;;;;;9.59;91.55;96438.22;4965492;28;20054;-61
2021/06/01 04:12:26;;;;;;;3.38;2.58;;;;;;;9.21;89.34;96336.31;4965046;28;20517;-60
2021/06/01 04:14:52;;;;;;;4.72;2.60;;;;;;;9.73;87.97;96391.34;4966263;28;20498;-60
2021/06/01 04:17:17;;;;;;;4.70;2.42;;;;;;;10.17;87.82;96460.53;4979366;28;20100;-60
2021/06/01 04:19:42;;;;;;;2.83;2.50;;;;;;;10.58;88.02;96482.25;4964128;28;20053;-60
2021/06/01 04:22:08;;;;;;;4.75;2.40;;;;;;;10.70;88.07;96479.19;4965027;28;20031;-60
2021/06/01 04:24:34;;;;;;;6.05;3.22;;;;;;;10.89;86.14;96475.34;4969545;28;20038;-61
2021/06/01 04:27:00;;;;;;;4.47;2.75;;;;;;;11.02;85.25;96490.47;4973205;28;20047;-60
2021/06/01 04:29:27;;;;;;;6.38;2.88;;;;;;;11.04;85.10;96498.41;4971501;28;20037;-60
2021/06/01 04:31:52;;;;;;;6.22;3.25;;;;;;;11.21;85.60;96492.97;4962512;28;20030;-60
2021/06/01 04:34:18;;;;;;;6.63;3.58;;;;;;;11.31;84.74;96491.44;4963856;28;20513;-63
2021/06/01 04:36:44;;;;;;;6.53;3.70;;;;;;;10.78;84.69;96407.22;4963855;28;20039;-60
2021/06/01 04:39:10;;;;;;;6.25;3.70;;;;;;;7.82;82.46;95945.34;4964723;28;20529;-60
2021/06/01 04:41:36;;;;;;;8.05;3.42;;;;;;;11.19;83.62;96450.19;4962975;28;20473;-62
2021/06/01 04:44:02;;;;;;;6.93;3.17;;;;;;;10.70;82.78;96345.47;4963817;28;20061;-62
2021/06/01 04:46:27;;;;;;;4.75;2.53;;;;;;;11.68;81.88;96489.28;4963347;28;20058;-60
2021/06/01 04:48:53;;;;;;;6.30;3.10;;;;;;;11.70;82.42;96484.09;4965217;28;20109;-60
2021/06/01 04:51:19;;;;;;;5.45;3.17;;;;;;;11.61;82.01;96458.69;4979323;28;20489;-59
2021/06/01 04:53:53;;;;;;;5.43;3.10;;;;;;;11.92;81.58;96466.31;4980088;28;20604;-59
2021/06/01 04:56:20;;;;;;;7.95;3.03;;;;;;;12.11;80.36;96496.50;4972525;28;20598;-59
2021/06/01 04:58:46;;;;;;;3.55;2.88;;;;;;;11.72;79.63;96379.09;4977598;28;20336;-60
2021/06/01 05:01:11;;;;;;;6.25;3.40;;;;;;;11.98;79.19;96421.16;4983800;28;20039;-59
2021/06/01 05:03:38;;;;;;;7.40;3.03;;;;;;;12.51;79.60;96453.72;4984231;28;20034;-59
2021/06/01 05:06:04;;;;;;;6.07;3.03;;;;;;;12.78;79.21;96483.47;4981833;28;20043;-60
2021/06/01 05:08:29;;;;;;;3.05;2.85;;;;;;;12.37;79.18;96398.97;4978731;28;20051;-60
2021/06/01 05:10:54;;;;;;;4.50;2.63;;;;;;;13.07;77.34;96476.72;4963061;28;20035;-60
2021/06/01 05:13:20;;;;;;;4.35;2.60;;;;;;;12.91;78.05;96506.91;4963210;28;20142;-62
2021/06/01 05:15:48;;;;;;;19.70;4.90;;;;;;;12.27;78.89;96344.22;4962938;28;20124;-61
2021/06/01 05:18:14;;;;;;;6.88;4.13;;;;;;;13.35;78.60;96482.22;4962832;28;20506;-61
2021/06/01 05:20:39;;;;;;;8.35;4.15;;;;;;;13.28;77.78;96432.16;4963031;28;20135;-61
2021/06/01 05:23:05;;;;;;;6.05;4.05;;;;;;;13.81;76.62;96475.69;4962051;28;20078;-62
2021/06/01 05:25:30;;;;;;;5.15;3.53;;;;;;;13.54;76.14;96417.78;4964201;28;20045;-60
2021/06/01 05:27:55;;;;;;;17.25;4.95;;;;;;;13.51;76.99;96476.97;4964471;28;20173;-61
2021/06/01 05:30:34;;;;;;;7.10;3.97;;;;;;;12.78;80.51;96408.44;4964257;28;20384;-62
2021/06/01 05:35:38;;;;;;;13.80;4.93;;;;;;;13.39;79.90;96483.00;4964336;28;20039;-61
2021/06/01 05:38:04;;;;;;;5.45;3.60;;;;;;;13.86;77.64;96472.47;4964598;28;20026;-61
2021/06/01 05:40:29;;;;;;;9.65;3.92;;;;;;;13.86;74.95;96466.91;4963911;28;20023;-60
2021/06/01 05:42:54;;;;;;;7.57;3.60;;;;;;;14.22;74.87;96462.72;4964426;28;20038;-61
2021/06/01 05:45:20;;;;;;;5.80;3.90;;;;;;;13.89;75.45;96396.50;4968045;28;20437;-62
2021/06/01 05:47:45;;;;;;;7.15;3.28;;;;;;;14.09;73.75;96381.63;4967480;28;20034;-60
2021/06/01 05:50:11;;;;;;;3.38;3.13;;;;;;;14.81;72.65;96467.09;4964934;28;20043;-63
2021/06/01 05:52:37;;;;;;;7.35;3.78;;;;;;;14.25;74.13;96467.50;4966285;28;20039;-64
2021/06/01 05:55:05;;;;;;;5.07;3.50;;;;;;;13.76;74.15;96362.78;4967578;28;20058;-67
2021/06/01 05:57:30;;;;;;;3.63;3.30;;;;;;;14.70;70.12;96405.06;4967795;28;20577;-66
2021/06/01 05:59:56;;;;;;;7.65;3.17;;;;;;;15.37;70.41;96466.50;4965391;28;20078;-64
2021/06/01 06:02:21;;;;;;;2.90;2.60;;;;;;;15.49;65.19;96452.03;4966566;28;20549;-63
2021/06/01 06:04:47;;;;;;;2.28;2.08;;;;;;;15.68;59.17;96453.44;4967738;28;20043;-63
2021/06/01 06:07:12;;;;;;;2.80;2.58;;;;;;;15.70;59.29;96432.25;4967324;28;20047;-61
2021/06/01 06:09:38;;;;;;;2.58;2.47;;;;;;;16.05;57.65;96440.16;4967782;28;20423;-61
2021/06/01 06:12:03;;;;;;;2.90;2.63;;;;;;;15.51;59.04;96343.56;4981612;28;20038;-65
2021/06/01 06:14:29;;;;;;;8.35;3.60;;;;;;;16.32;56.80;96457.72;4967793;28;20117;-61
2021/06/01 06:16:56;;;;;;;3.22;2.83;;;;;;;16.34;57.25;96441.31;4964479;28;20055;-60
2021/06/01 06:19:21;;;;;;;3.45;3.15;;;;;;;16.60;56.21;96453.72;4966796;28;20058;-62
2021/06/01 06:21:47;;;;;;;6.25;2.70;;;;;;;16.28;56.48;96445.78;4966551;28;20799;-71
2021/06/01 06:24:12;;;;;;;4.53;3.00;;;;;;;15.78;54.55;96369.50;4967318;28;20041;-59
2021/06/01 06:26:38;;;;;;;3.55;2.92;;;;;;;15.63;55.20;96348.59;4966238;28;20063;-59
2021/06/01 06:29:03;;;;;;;3.58;2.92;;;;;;;16.38;55.02;96444.84;4967097;28;20035;-64
2021/06/01 06:31:29;;;;;;;3.33;3.13;;;;;;;16.77;54.40;96446.28;4966199;28;20759;-63
2021/06/01 06:33:54;;;;;;;2.85;2.65;;;;;;;16.04;53.23;96287.72;4966673;28;20050;-67
2021/06/01 06:36:20;;;;;;;3.10;2.90;;;;;;;17.35;53.29;96448.41;4964554;28;20489;-65
2021/06/01 06:38:47;;;;;;;2.70;2.50;;;;;;;17.57;50.91;96449.63;4965572;28;20042;-59
2021/06/01 06:41:14;;;;;;;2.78;2.58;;;;;;;17.65;49.65;96418.25;4966769;28;20478;-62
2021/06/01 06:43:44;;;;;;;2.90;2.70;;;;;;;17.84;50.32;96456.66;4967554;28;20562;-65
2021/06/01 06:46:16;;;;;;;2.95;2.78;;;;;;;17.94;51.55;96418.44;4962016;28;20034;-62
2021/06/01 06:48:42;;;;;;;3.05;2.60;;;;;;;18.42;49.71;96443.78;4965977;28;20122;-61
2021/06/01 06:51:13;;;;;;;2.58;2.38;;;;;;;18.72;48.27;96446.28;4964989;28;20113;-61
2021/06/01 06:54:01;;;;;;;3.10;2.80;;;;;;;18.85;48.07;96444.34;4956424;28;20043;-65
2021/06/01 06:56:28;;;;;;;2.78;2.58;;;;;;;19.01;47.73;96438.75;4964683;28;20082;-62
2021/06/01 06:58:56;;;;;;;3.45;3.15;;;;;;;19.34;47.05;96392.56;4964555;28;20516;-61
2021/06/01 07:01:22;;;;;;;3.22;2.92;;;;;;;20.00;45.49;96450.06;4961244;28;20036;-61
2021/06/01 07:03:48;;;;;;;3.35;3.08;;;;;;;20.44;44.55;96435.09;4978596;28;20556;-63
2021/06/01 07:06:15;;;;;;;3.40;3.20;;;;;;;20.62;44.65;96429.69;4963367;28;20085;-60
2021/06/01 07:08:40;;;;;;;7.63;4.60;;;;;;;20.78;44.30;96438.81;4965255;28;20050;-63
2021/06/01 07:11:06;;;;;;;4.03;3.25;;;;;;;20.99;43.46;96440.19;4965655;28;20477;-60
2021/06/01 07:14:10;;;;;;;3.17;2.97;;;;;;;20.75;43.83;96433.28;4963188;28;20035;-63
2021/06/01 07:16:36;;;;;;;10.95;3.33;;;;;;;19.83;44.55;96440.94;4947769;28;20055;-60
2021/06/01 07:19:03;;;;;;;2.67;2.42;;;;;;;19.21;45.22;96453.44;4962764;28;20549;-60
2021/06/01 07:21:28;;;;;;;2.50;2.40;;;;;;;18.78;45.35;96449.38;4965688;28;20034;-60
2021/06/01 07:23:54;;;;;;;3.10;2.47;;;;;;;18.54;45.48;96461.97;4965628;28;20412;-64
2021/06/01 07:26:20;;;;;;;3.65;2.65;;;;;;;17.98;46.70;96394.72;4964711;28;20038;-56
2021/06/01 07:28:45;;;;;;;4.70;3.72;;;;;;;18.48;45.31;96447.66;4965199;28;20042;-60
2021/06/01 07:31:16;;;;;;;4.00;3.70;;;;;;;18.44;46.23;96435.75;4964050;28;20187;-64
2021/06/01 07:33:42;;;;;;;3.53;3.20;;;;;;;16.61;46.62;96159.69;4966339;28;20046;-60
2021/06/01 07:36:09;;;;;;;3.55;3.05;;;;;;;18.30;44.34;96424.81;4965384;28;20061;-66
2021/06/01 07:38:35;;;;;;;3.17;2.90;;;;;;;18.54;46.13;96440.28;4959691;28;20046;-61
2021/06/01 07:41:06;;;;;;;3.53;2.80;;;;;;;18.04;46.49;96324.91;4944473;28;20023;-65
2021/06/01 07:43:31;;;;;;;3.22;3.00;;;;;;;18.67;45.97;96418.75;4946901;28;20043;-61
2021/06/01 07:45:57;;;;;;;4.50;3.17;;;;;;;18.98;45.08;96431.19;4963573;28;20528;-59
2021/06/01 07:48:23;;;;;;;3.00;2.80;;;;;;;19.00;44.04;96434.34;4963088;28;20042;-57
2021/06/01 07:50:50;;;;;;;2.90;2.42;;;;;;;18.81;45.45;96442.88;4963875;28;20031;-58
2021/06/01 07:53:16;;;;;;;3.05;2.80;;;;;;;18.42;47.50;96452.22;4964172;28;20042;-60
2021/06/01 07:55:42;;;;;;;2.97;2.65;;;;;;;18.30;47.56;96458.47;4966929;28;20041;-59
2021/06/01 07:58:07;;;;;;;4.00;3.03;;;;;;;17.68;48.97;96427.78;4972803;28;20031;-58
2021/06/01 08:00:33;;;;;;;4.75;2.95;;;;;;;17.71;47.57;96449.34;4987592;28;20042;-62
2021/06/01 08:02:59;;;;;;;8.45;3.92;;;;;;;18.19;46.87;96457.13;4973701;28;20030;-57
2021/06/01 08:05:25;;;;;;;3.70;3.17;;;;;;;18.97;46.46;96452.06;4973818;28;20044;-60
2021/06/01 08:07:50;;;;;;;2.83;2.70;;;;;;;19.61;44.79;96450.41;4974324;28;20031;-64
2021/06/01 08:10:20;;;;;;;4.32;2.78;;;;;;;19.64;42.61;96398.94;4973873;28;20066;-64
2021/06/01 08:12:46;;;;;;;3.22;2.72;;;;;;;19.79;42.46;96465.53;4973370;28;20033;-62
2021/06/01 08:15:12;;;;;;;2.83;2.50;;;;;;;19.06;43.32;96404.50;4971886;28;20034;-62
2021/06/01 08:17:38;;;;;;;3.20;3.00;;;;;;;18.92;43.58;96393.63;4971587;28;20055;-59
2021/06/01 08:20:14;;;;;;;2.88;2.78;;;;;;;19.00;42.81;96461.63;4973713;28;20034;-58
2021/06/01 08:22:41;;;;;;;3.33;3.03;;;;;;;19.98;43.31;96458.19;4975378;28;20843;-60
2021/06/01 08:25:07;;;;;;;2.95;2.72;;;;;;;20.11;40.98;96462.59;4972218;28;20046;-67
2021/06/01 08:27:34;;;;;;;4.45;3.10;;;;;;;19.95;42.11;96461.88;4982295;28;20492;-59
2021/06/01 08:29:59;;;;;;;4.13;3.00;;;;;;;19.68;42.31;96403.22;4999510;28;20046;-58
2021/06/01 08:32:25;;;;;;;2.92;2.72;;;;;;;19.61;42.27;96408.25;4971401;28;20035;-63
2021/06/01 08:34:51;;;;;;;3.30;3.10;;;;;;;19.82;41.42;96444.19;4967119;28;20038;-64
2021/06/01 08:37:17;;;;;;;3.83;3.00;;;;;;;19.16;40.27;96378.16;4963653;28;20089;-64
2021/06/01 08:39:42;;;;;;;3.00;2.90;;;;;;;19.81;39.88;96420.09;4965156;28;20042;-65
2021/06/01 08:42:08;;;;;;;3.28;2.97;;;;;;;20.05;41.14;96410.16;4964095;28;20027;-66
2021/06/01 08:44:33;;;;;;;6.53;4.97;;;;;;;20.51;39.09;96434.88;4964571;28;20529;-59
2021/06/01 08:47:01;;;;;;;4.47;3.03;;;;;;;20.51;39.55;96434.88;4963420;28;20026;-59
2021/06/01 08:49:26;;;;;;;4.13;3.83;;;;;;;20.02;41.26;96354.81;4964724;28;20109;-58
2021/06/01 08:51:52;;;;;;;3.30;3.13;;;;;;;20.62;39.46;96429.69;4964734;28;20498;-61
2021/06/01 08:54:18;;;;;;;3.17;2.97;;;;;;;20.16;39.05;96352.38;4965649;28;20450;-56
2021/06/01 08:56:44;;;;;;;9.13;6.82;;;;;;;20.89;40.61;96427.19;4954078;28;21113;-59
2021/06/01 08:59:11;;;;;;;3.42;3.22;;;;;;;20.62;38.47;96390.28;4960661;28;20399;-58
2021/06/01 09:01:36;;;;;;;3.58;3.38;;;;;;;20.85;39.80;96438.56;4964095;28;20034;-59
2021/06/01 09:04:08;;;;;;;3.35;3.03;;;;;;;21.22;39.70;96425.69;4964338;28;20034;-70
2021/06/01 09:06:50;;;;;;;3.28;3.08;;;;;;;20.87;39.67;96427.66;4962352;28;20189;-58
2021/06/01 09:22:58;;;;;;;3.45;3.25;;;;;;;21.53;36.78;96370.22;4966905;28;20040;-65
2021/06/01 09:25:39;;;;;;;3.25;3.15;;;;;;;21.62;37.16;96429.50;4968306;28;20041;-61
2021/06/01 09:28:07;;;;;;;3.60;3.40;;;;;;;21.19;37.76;96426.59;4982922;28;20035;-59
2021/06/01 09:30:39;;;;;;;5.25;4.85;;;;;;;20.57;40.49;96433.88;4968024;28;20489;-64
2021/06/01 09:33:21;;;;;;;5.63;5.13;;;;;;;19.43;42.58;96384.25;4968588;28;20469;-64
2021/06/01 09:35:52;;;;;;;6.20;5.55;;;;;;;19.53;44.81;96447.81;4966798;28;20034;-60
2021/06/01 09:38:43;;;;;;;4.10;3.80;;;;;;;19.20;43.70;96421.00;4966564;28;20517;-64
2021/06/01 09:41:09;;;;;;;3.55;3.35;;;;;;;19.30;44.12;96441.63;4967792;28;20043;-59
2021/06/01 09:43:49;;;;;;;4.43;3.47;;;;;;;19.21;45.83;96445.03;4968007;28;20077;-65
2021/06/01 09:46:44;;;;;;;2.78;2.65;;;;;;;19.33;41.50;96329.16;4968220;28;20066;-60
2021/06/01 09:49:12;;;;;;;3.28;3.08;;;;;;;19.38;42.85;96438.16;4968150;28;20034;-65
2021/06/01 09:51:41;;;;;;;4.05;3.75;;;;;;;19.38;44.06;96440.19;4967820;28;20477;-66
2021/06/01 09:54:29;;;;;;;3.33;3.10;;;;;;;19.19;45.31;96441.84;4968601;28;20109;-66
2021/06/01 09:56:55;;;;;;;3.78;3.40;;;;;;;19.30;44.80;96430.41;4998358;28;20506;-62
2021/06/01 09:59:20;;;;;;;6.78;5.13;;;;;;;18.06;46.28;96303.63;4965363;28;20042;-61
2021/06/01 10:01:46;;;;;;;3.40;3.13;;;;;;;19.44;45.50;96442.00;4966512;28;20042;-60
2021/06/01 10:04:22;;;;;;;7.00;5.68;;;;;;;18.57;47.00;96405.78;4967904;28;20031;-60
2021/06/01 10:06:48;;;;;;;9.57;5.35;;;;;;;18.42;47.66;96432.56;4965437;28;20047;-64
2021/06/01 10:09:14;;;;;;;6.97;5.35;;;;;;;18.43;45.75;96411.69;4967731;28;20054;-58
2021/06/01 10:11:39;;;;;;;4.70;4.05;;;;;;;18.05;47.39;96450.59;4967176;28;20037;-65
2021/06/01 10:14:05;;;;;;;6.95;4.53;;;;;;;17.85;48.51;96444.22;4968136;28;20039;-65
2021/06/01 10:16:31;;;;;;;9.77;7.35;;;;;;;18.40;49.27;96440.63;4967087;28;20050;-58
2021/06/01 10:18:56;;;;;;;9.57;5.80;;;;;;;18.95;46.85;96432.06;4972525;28;20042;-59
2021/06/01 10:21:24;;;;;;;4.70;4.18;;;;;;;18.64;45.88;96438.47;4975122;28;20045;-65
2021/06/01 10:23:52;;;;;;;6.50;5.78;;;;;;;18.84;45.32;96437.16;4966837;28;20054;-64
2021/06/01 10:26:17;;;;;;;6.05;4.68;;;;;;;19.39;43.82;96436.94;4959717;28;20042;-64
2021/06/01 10:28:46;;;;;;;6.85;5.70;;;;;;;19.87;41.64;96432.41;4959372;28;20514;-60
2021/06/01 10:31:14;;;;;;;3.85;3.58;;;;;;;20.45;40.43;96436.69;4960503;28;20047;-57
2021/06/01 10:33:58;;;;;;;3.20;3.00;;;;;;;21.02;39.07;96430.81;4965202;28;20517;-62
2021/06/01 10:53:04;;;;;;;4.65;4.30;;;;;;;20.05;43.82;96429.84;4957343;28;20058;-62
2021/06/01 10:55:48;;;;;;;4.97;4.18;;;;;;;20.11;41.22;96366.19;4964799;28;20034;-66
2021/06/01 10:58:15;;;;;;;3.50;3.30;;;;;;;20.98;38.85;96402.75;4964870;28;20041;-59
2021/06/01 11:03:11;;;;;;;4.60;4.30;;;;;;;22.00;38.05;96353.94;4965773;28;20042;-58
2021/06/01 11:06:09;;;;;;;3.88;3.60;;;;;;;22.49;36.76;96416.91;4964807;28;20030;-67
2021/06/01 11:08:43;;;;;;;4.45;4.20;;;;;;;22.04;37.37;96323.59;4965078;28;20098;-64
2021/06/01 11:11:28;;;;;;;4.68;4.32;;;;;;;21.67;38.81;96330.22;4965372;28;20023;-62
2021/06/01 11:13:58;;;;;;;6.03;3.75;;;;;;;21.13;41.33;96397.44;4963682;28;20044;-59
2021/06/01 11:16:24;;;;;;;3.38;3.17;;;;;;;20.06;44.10;96471.56;4964813;28;20055;-66
2021/06/01 11:19:02;;;;;;;3.15;2.95;;;;;;;19.97;44.21;96411.59;4965347;28;20404;-68
2021/06/01 11:24:16;;;;;;;4.63;3.88;;;;;;;20.02;43.54;96402.63;4965759;28;20043;-66
2021/06/01 11:35:29;;;;;;;2.72;2.63;;;;;;;20.42;44.41;96393.31;4962002;28;20129;-64
2021/06/01 11:38:11;;;;;;;4.18;3.85;;;;;;;20.46;42.54;96407.28;4965283;28;20039;-61
2021/06/01 11:43:17;;;;;;;5.20;2.70;;;;;;;19.95;43.90;96414.09;4946540;29;20447;-67
2021/06/01 11:45:50;;;;;;;6.97;2.90;;;;;;;19.85;46.12;96420.81;4946639;28;21207;-58
2021/06/01 11:51:30;;;;;;;2.85;2.65;;;;;;;19.84;44.92;96427.66;4965222;28;20039;-60
2021/06/01 11:54:11;;;;;;;2.53;2.42;;;;;;;19.71;44.57;96421.22;4967886;28;20125;-61
2021/06/01 11:57:03;;;;;;;3.30;2.60;;;;;;;20.39;44.49;96427.22;4965198;28;20039;-62
2021/06/01 12:18:59;;;;;;;2.78;2.58;;;;;;;18.70;55.67;96442.34;4963914;28;20109;-68
2021/06/01 12:21:36;;;;;;;2.90;2.70;;;;;;;18.51;57.19;96434.78;4963333;28;20616;-66
2021/06/01 12:24:05;;;;;;;2.85;2.65;;;;;;;18.05;62.48;96424.59;4979832;28;20072;-57
2021/06/01 12:32:00;;;;;;;2.50;2.40;;;;;;;19.70;50.23;96430.88;4964742;28;20042;-67
2021/06/01 12:45:32;;;;;;;42.28;32.95;;;;;;;22.73;44.66;96422.06;4963156;28;20497;-59
2021/06/01 13:20:31;;;;;;;3.33;3.22;;;;;;;22.00;41.95;96449.84;4964465;28;20045;-60
2021/06/01 13:40:17;;;;;;;2.33;2.22;;;;;;;18.32;48.55;96472.81;4964687;28;20061;-58
2021/06/01 13:56:20;;;;;;;8.02;4.63;;;;;;;19.32;47.29;96468.03;4964187;28;20046;-60
2021/06/01 14:10:07;;;;;;;8.93;3.20;;;;;;;18.31;49.11;96471.25;4967911;28;20537;-59
2021/06/01 14:40:25;;;;;;;2.30;2.20;;;;;;;17.20;50.72;96480.72;4966884;28;20039;-60
2021/06/01 15:28:44;;;;;;;3.53;3.22;;;;;;;17.53;57.94;96454.50;4985869;28;20072;-66
2021/06/01 16:12:53;;;;;;;5.80;5.18;;;;;;;18.17;53.78;96544.47;4965509;28;20041;-67
2021/06/01 16:15:41;;;;;;;4.00;3.67;;;;;;;18.05;51.21;96543.09;4965114;28;20037;-66
2021/06/01 17:04:45;;;;;;;4.88;3.30;;;;;;;14.32;61.35;96604.00;4974276;28;20053;-66
2021/06/01 17:12:46;;;;;;;9.43;6.10;;;;;;;13.26;65.50;96579.19;4972540;28;20524;-67
2021/06/01 17:15:15;;;;;;;8.13;5.75;;;;;;;13.50;66.85;96645.13;4972872;28;20313;-67
2021/06/01 17:18:02;;;;;;;12.15;5.20;;;;;;;13.38;68.15;96645.56;4984228;28;20058;-61
2021/06/01 17:37:00;;;;;;;17.55;11.38;;;;;;;13.02;69.67;96690.41;4963797;28;20172;-67